Bath, Kentucky
Current Conditions -  °F | °C
As of 7:55 AM on Thursday 30 Oct 2014 (Local Time) from KPBX Reporting Station
Clear Clear  
Wind Chill: 37°   Ceiling: Unl
Heat Index: 37°   Visibility: 10mi
Dew Point: 34°   Wind: 3mph
Humidity: 87%   Direction: 320°NW
Pressure: 30.13"   Gusts: NA
Location:  37.3185°N, 82.8717°W
Report Text: KPBX 301155Z AUTO 32003KT 10SM CLR 03/01 A3013 RMK AO2 T00280009 10057 20028
Loading
Personal Weather Stations






























Interactive Weather Map New forecast layout! Learn more

10-Day Weather Forecast

Advertisements
Track Severe Weather on mobile